Trenton, AL (35774)

6:42 AM CDT on October 24, 2014 (GMT -0500)
Gurley | Change Station
CLOSE
Current Station
Personal Weather Station
Location: Gurley, AL
Elevation: 745 ft
Nearby Weather Stations

Elev 745 ft 34.80 °N, 86.39 °W | Updated 55 seconds ago

Mostly Cloudy
Mostly Cloudy
44.5 °F
Feels Like 44 °F
N
0.0
Wind Variable Wind from SW
Gusts 0.0 mph

Today
High -- | Low -- °F
--% Chance of Precip.
Yesterday
High -- | Low -- °F
Precip. -- in
6:58 AM 5:59 PM
New Moon, 0% visible
Pressure 30.11 in
Visibility 10.0 miles
Clouds Few 12000 ft
Windchill 44 °F
Dew Point 44 °F
Humidity 97%
Rainfall 0.00 in
Snow Depth Not available.
UV 0 out of 12
Pollen 1.70 out of 12
Air Quality Not available.
Flu Activity Sporadic
METAR K4A6 241135Z AUTO 00000KT 10SM FEW120 09/08 A3011 RMK AO2

More Conditions Fewer Conditions

Pressure 30.11 in
Visibility 10.0 miles
Clouds Few 12000 ft
Windchill 44 °F
Dew Point 44 °F
Humidity 97%
Rainfall 0.00 in
Snow Depth Not available.
UV 0 out of 12
Pollen 1.70 out of 12
Air Quality Not available.
Flu Activity Sporadic
METAR K4A6 241135Z AUTO 00000KT 10SM FEW120 09/08 A3011 RMK AO2

More Conditions Fewer Conditions

10-Day Weather Forecast

Almanac

Astronomy

Oct. 24, 2014 Rise Set
Actual Time 6:58 AM CDT 5:59 PM CDT
Civil Twilight 6:32 AM CDT 6:25 PM CDT
Nautical Twilight 6:03 AM CDT 6:54 PM CDT
Astronomical Twilight 5:33 AM CDT 7:24 PM CDT
Moon 7:35 AM CDT 6:41 PM CDT
Length of Visible Light 11h 52m
Length of Day
11h 01m
Tomorrow will be 2m 0s shorter.
New Moon, 0% of the Moon is Illuminated
Today
New Moon
Oct 30
First Quarter
Nov 6
Full
Nov 14
Last Quarter
Nov 22
New

Today's Extremes

State Highs State Lows

Community

WunderPhotos

Upload Photos

1,764,526 photos uploaded!

WunderBlogs® & News

Nearby

Snow Depth

Station Depth Elevation
No new snow has been reported.

Earthquake Activity

City Distance Mag. Time & Date
No recent earthquake activity has been reported nearby.
Minimum magnitude displayed is 2.5.

Coastal Water Temperatures

Place Temperature
No Stations Reporting

Nearby Weather Stations